X  Stänga Metar väderdata för luftfart     KDNN Dalton Municipal Airport
Temperatur
5°C Temperatur
5°C Daggpunkt
100% Fuktighet



Vind
2 M/S
5 MPH
8 KM/T
4 KTS



220°
SV
Nuvarande omständigheter

Regn, Dimma Regn, Dimma
Tryck 1027.09 (hPa) - 30.33 (inHg)
Synlighet 1.2 (mil) - 2 (km)
Flygplats
Flygplatskod KDNN

Plats: Dalton Municipal Airport
Distans: 34 (km)

Metar:
KDNN 011655Z AUTO 22004KT 1 1/4SM RA BR FEW008 OVC075 05/05 A3033 RMK AO2 P0004 T00500050

Tid: 03-01-2024 11:55 EST